Time;durP1;ratioP1;P1;durP2;ratioP2;P2;SDS_P1;SDS_P2;PMS_P1;PMS_P2;Temp;Humidity;BMP_temperature;BMP_pressure;BME280_temperature;BME280_humidity;BME280_pressure;Samples;Min_cycle;Max_cycle;Signal;HPM_P1;HPM_P2
2022/09/03 00:00:16;;;;;;;7.38;3.10;;;11.60;96.10;;;;;;9585882;30;20055;-90
2022/09/03 00:05:54;;;;;;;4.72;2.60;;;11.50;96.30;;;;;;9600318;30;20351;-88
2022/09/03 00:11:12;;;;;;;6.57;2.72;;;11.50;96.40;;;;;;9601143;30;20067;-90
2022/09/03 00:16:17;;;;;;;4.45;2.30;;;11.40;96.90;;;;;;9603545;30;20107;-90
2022/09/03 00:21:44;;;;;;;7.23;2.97;;;11.30;97.20;;;;;;9587347;30;20038;-90
2022/09/03 00:26:54;;;;;;;4.97;2.20;;;11.20;98.10;;;;;;9591841;30;20436;-89
2022/09/03 00:32:00;;;;;;;5.87;2.20;;;11.20;97.90;;;;;;9603579;30;20093;-89
2022/09/03 00:37:02;;;;;;;5.07;2.30;;;11.10;97.90;;;;;;9600769;30;20065;-91
2022/09/03 00:42:22;;;;;;;5.53;2.97;;;11.00;98.40;;;;;;9602703;30;20070;-88
2022/09/03 00:47:34;;;;;;;6.67;2.50;;;10.90;99.60;;;;;;9616170;30;20602;-89
2022/09/03 00:52:56;;;;;;;6.22;2.15;;;10.80;99.80;;;;;;9612525;30;20110;-89
2022/09/03 00:58:05;;;;;;;4.33;2.40;;;10.80;99.90;;;;;;9607309;30;20051;-90
2022/09/03 01:03:09;;;;;;;4.60;2.33;;;10.70;99.90;;;;;;9610136;30;20039;-89
2022/09/03 01:08:58;;;;;;;5.33;2.30;;;10.70;99.90;;;;;;9607467;30;20667;-89
2022/09/03 01:14:20;;;;;;;5.97;2.30;;;10.60;99.90;;;;;;9520973;31;20482;-88
2022/09/03 01:19:26;;;;;;;6.30;3.20;;;10.60;99.90;;;;;;9587489;30;20153;-89
2022/09/03 01:24:40;;;;;;;6.80;2.40;;;10.60;99.90;;;;;;9608838;30;20035;-89
2022/09/03 01:30:02;;;;;;;7.07;2.40;;;10.60;99.90;;;;;;9613436;30;20039;-89
2022/09/03 01:35:29;;;;;;;9.33;2.87;;;10.50;99.90;;;;;;9627323;30;20151;-89
2022/09/03 01:40:36;;;;;;;6.60;2.13;;;10.50;99.90;;;;;;9595966;30;20081;-90
2022/09/03 01:45:50;;;;;;;3.50;2.37;;;10.50;99.90;;;;;;9609752;30;20042;-89
2022/09/03 01:50:59;;;;;;;9.20;2.30;;;10.50;99.90;;;;;;9608217;30;20058;-89
2022/09/03 01:55:59;;;;;;;6.13;2.47;;;10.50;99.90;;;;;;9617333;30;20067;-89
2022/09/03 02:01:14;;;;;;;4.70;2.17;;;10.50;99.90;;;;;;9619350;30;20046;-90
2022/09/03 02:06:14;;;;;;;5.07;3.07;;;10.40;99.90;;;;;;9603152;30;20099;-89
2022/09/03 02:11:16;;;;;;;6.20;2.93;;;10.40;99.90;;;;;;9602828;30;20279;-89
2022/09/03 02:16:23;;;;;;;4.43;1.73;;;10.30;99.90;;;;;;9623931;30;20108;-90
2022/09/03 02:21:26;;;;;;;6.90;2.30;;;10.30;99.90;;;;;;9606001;30;20038;-89
2022/09/03 02:26:27;;;;;;;7.23;2.53;;;10.20;99.90;;;;;;9620589;30;20639;-89
2022/09/03 02:31:28;;;;;;;8.73;2.23;;;10.10;99.90;;;;;;9622492;30;20050;-91
2022/09/03 02:36:33;;;;;;;7.47;2.60;;;10.10;99.90;;;;;;9609471;30;20491;-89
2022/09/03 02:41:34;;;;;;;6.28;2.20;;;10.00;99.90;;;;;;9621601;30;20156;-88
2022/09/03 02:46:39;;;;;;;4.17;2.50;;;9.90;99.90;;;;;;9622049;30;20125;-89
2022/09/03 02:51:41;;;;;;;6.87;2.13;;;9.90;99.90;;;;;;9608802;30;20039;-90
2022/09/03 02:56:42;;;;;;;4.13;2.40;;;10.00;99.90;;;;;;9611088;30;20074;-88
2022/09/03 03:01:42;;;;;;;5.23;2.50;;;10.00;99.90;;;;;;9626633;30;20118;-89
2022/09/03 03:06:43;;;;;;;5.93;2.40;;;10.10;99.90;;;;;;9616428;30;20492;-88
2022/09/03 03:11:44;;;;;;;6.33;2.87;;;10.10;99.90;;;;;;9606190;30;20031;-89
2022/09/03 03:16:44;;;;;;;5.47;2.60;;;10.10;99.90;;;;;;9599634;30;20062;-89
2022/09/03 03:21:45;;;;;;;4.20;2.20;;;10.00;99.90;;;;;;9602832;30;20039;-89
2022/09/03 03:26:45;;;;;;;7.57;2.97;;;10.00;99.90;;;;;;9615967;30;20042;-89
2022/09/03 03:31:46;;;;;;;4.13;2.50;;;9.90;99.90;;;;;;9615979;30;20035;-89
2022/09/03 03:36:46;;;;;;;4.10;2.27;;;9.90;99.90;;;;;;9618424;30;20043;-90
2022/09/03 03:41:47;;;;;;;6.23;2.73;;;9.80;99.90;;;;;;9634796;30;20038;-89
2022/09/03 03:46:48;;;;;;;6.73;2.90;;;9.80;99.90;;;;;;9619615;30;20054;-89
2022/09/03 03:51:48;;;;;;;6.23;2.70;;;9.70;99.90;;;;;;9609205;30;20049;-88
2022/09/03 03:56:49;;;;;;;4.50;2.40;;;9.60;99.90;;;;;;9604083;30;20051;-89
2022/09/03 04:01:50;;;;;;;4.87;2.53;;;9.60;99.90;;;;;;9614682;30;20039;-89
2022/09/03 04:06:50;;;;;;;6.43;2.70;;;9.70;99.90;;;;;;9625606;30;20042;-88
2022/09/03 04:11:51;;;;;;;5.10;2.67;;;9.70;99.90;;;;;;9633274;30;20074;-89
2022/09/03 04:16:52;;;;;;;9.53;2.97;;;9.70;99.90;;;;;;9602150;30;20070;-89
2022/09/03 04:21:53;;;;;;;5.23;2.87;;;9.70;99.90;;;;;;9601136;30;20101;-90
2022/09/03 04:26:54;;;;;;;4.93;2.63;;;9.60;99.90;;;;;;9625529;30;20381;-90
2022/09/03 04:37:15;;;;;;;5.23;2.53;;;9.60;99.90;;;;;;9631856;30;20055;-90
2022/09/03 04:42:15;;;;;;;10.50;3.03;;;9.60;99.90;;;;;;9618624;30;20650;-89
2022/09/03 04:47:16;;;;;;;5.00;2.60;;;9.70;99.90;;;;;;9621307;30;20043;-90
2022/09/03 04:52:18;;;;;;;8.00;3.37;;;9.70;99.90;;;;;;9589014;30;20043;-89
2022/09/03 04:57:18;;;;;;;6.57;3.30;;;9.70;99.90;;;;;;9614344;30;20049;-88
2022/09/03 05:02:20;;;;;;;9.67;3.47;;;9.80;99.90;;;;;;9599401;30;20047;-89
2022/09/03 05:07:21;;;;;;;5.13;2.90;;;9.90;99.90;;;;;;9596805;30;20057;-89
2022/09/03 05:12:25;;;;;;;6.03;3.67;;;10.10;99.90;;;;;;9623831;30;20042;-90
2022/09/03 05:17:26;;;;;;;6.83;3.20;;;10.20;99.90;;;;;;9606847;30;20058;-89
2022/09/03 05:22:27;;;;;;;6.13;3.30;;;10.30;99.90;;;;;;9608359;30;20044;-87
2022/09/03 05:27:29;;;;;;;5.47;3.43;;;10.50;99.90;;;;;;9622507;30;20038;-91
2022/09/03 05:32:31;;;;;;;5.13;3.07;;;10.50;99.90;;;;;;9618991;30;20039;-88
2022/09/03 05:37:32;;;;;;;8.33;3.73;;;10.70;99.90;;;;;;9608720;30;20046;-87
2022/09/03 05:42:34;;;;;;;5.43;3.45;;;10.80;99.90;;;;;;9610277;30;20056;-88
2022/09/03 05:47:34;;;;;;;5.95;3.30;;;11.00;99.90;;;;;;9614357;30;20042;-90
2022/09/03 05:52:35;;;;;;;8.38;3.85;;;11.20;99.90;;;;;;9623241;30;20038;-89
2022/09/03 05:57:37;;;;;;;10.73;3.83;;;11.60;99.90;;;;;;9608935;30;20519;-88
2022/09/03 06:02:37;;;;;;;7.80;4.18;;;11.90;99.90;;;;;;9621437;30;20088;-89
2022/09/03 06:07:38;;;;;;;10.10;4.65;;;12.10;99.90;;;;;;9596858;30;20174;-87
2022/09/03 06:12:39;;;;;;;10.30;4.70;;;12.30;99.90;;;;;;9595957;30;20516;-89
2022/09/03 06:17:39;;;;;;;10.30;4.88;;;12.60;99.90;;;;;;9612519;30;20066;-89
2022/09/03 06:22:40;;;;;;;8.65;4.85;;;12.80;99.90;;;;;;9601592;30;20043;-90
2022/09/03 06:27:41;;;;;;;9.93;4.63;;;13.10;99.90;;;;;;9613607;30;20125;-89
2022/09/03 06:33:40;;;;;;;7.90;4.60;;;13.30;99.90;;;;;;9598748;30;20037;-93
2022/09/03 06:38:41;;;;;;;8.00;4.35;;;13.60;99.90;;;;;;9578810;30;20120;-91
2022/09/03 06:43:45;;;;;;;8.25;5.10;;;13.80;99.90;;;;;;9600735;30;20702;-93
2022/09/03 06:48:57;;;;;;;6.95;4.90;;;14.10;99.90;;;;;;9618665;30;20040;-91
2022/09/03 07:00:32;;;;;;;6.18;3.35;;;14.60;99.90;;;;;;9619820;30;20157;-92
2022/09/03 07:05:33;;;;;;;6.32;3.72;;;14.80;99.90;;;;;;9469946;31;20060;-88
2022/09/03 07:10:36;;;;;;;6.85;3.67;;;14.90;99.90;;;;;;9573023;30;20046;-91
2022/09/03 07:16:00;;;;;;;8.95;4.47;;;15.10;99.90;;;;;;9604240;30;20542;-89
2022/09/03 07:21:02;;;;;;;10.80;6.28;;;15.30;99.90;;;;;;9613479;30;20184;-91
2022/09/03 07:26:06;;;;;;;9.43;5.10;;;15.50;99.90;;;;;;9594307;30;20039;-90
2022/09/03 07:31:10;;;;;;;10.98;5.65;;;15.60;99.90;;;;;;9602497;30;20053;-91
2022/09/03 07:36:18;;;;;;;8.30;4.53;;;15.70;99.90;;;;;;9617555;30;20069;-89
2022/09/03 07:41:22;;;;;;;11.05;4.28;;;15.80;99.90;;;;;;9607960;30;20164;-91
2022/09/03 07:46:26;;;;;;;9.65;4.47;;;16.10;99.90;;;;;;9608615;30;20527;-91
2022/09/03 07:51:29;;;;;;;10.13;5.68;;;16.40;99.90;;;;;;9606513;30;20400;-91
2022/09/03 07:56:33;;;;;;;10.40;5.38;;;16.70;99.90;;;;;;9622106;30;20038;-90
2022/09/03 08:01:35;;;;;;;9.15;4.05;;;17.10;99.90;;;;;;9625864;30;20035;-90
2022/09/03 08:06:59;;;;;;;6.30;4.03;;;17.30;99.90;;;;;;9589578;30;20034;-90
2022/09/03 08:12:00;;;;;;;6.32;3.70;;;17.40;99.30;;;;;;9600169;30;20187;-91
2022/09/03 08:17:03;;;;;;;7.95;5.22;;;17.60;98.60;;;;;;9617809;30;20125;-92
2022/09/03 08:22:04;;;;;;;4.72;3.55;;;17.80;98.30;;;;;;9599009;30;20031;-91
2022/09/03 08:27:05;;;;;;;7.40;4.13;;;18.30;97.00;;;;;;9606892;30;20031;-90
2022/09/03 08:32:05;;;;;;;6.63;4.13;;;18.60;96.20;;;;;;9615857;30;20047;-91
2022/09/03 08:37:09;;;;;;;6.05;3.83;;;19.00;95.30;;;;;;9606942;30;20569;-91
2022/09/03 08:42:22;;;;;;;8.32;4.93;;;19.40;93.90;;;;;;9607928;30;20046;-92
2022/09/03 08:47:45;;;;;;;7.28;4.38;;;19.70;92.80;;;;;;9593706;30;20064;-91
2022/09/03 09:26:53;;;;;;;9.77;5.10;;;20.60;89.20;;;;;;10412715;24;20059;-89
2022/09/03 09:42:47;;;;;;;6.95;4.22;;;20.90;86.40;;;;;;10851469;25;20146;-89
2022/09/03 09:53:29;;;;;;;6.32;4.00;;;20.70;84.00;;;;;;11113755;25;20071;-90
2022/09/03 10:04:30;;;;;;;8.38;3.72;;;20.90;84.10;;;;;;10161022;25;20897;-90
2022/09/03 10:29:22;;;;;;;7.00;4.03;;;20.40;84.10;;;;;;9541808;31;20051;-90
2022/09/03 10:57:39;;;;;;;;;;;;;;;;;;;;;
2022/09/03 11:19:16;;;;;;;16.38;8.85;;;18.70;88.80;;;;;;11278827;25;20070;-90
2022/09/03 11:31:01;;;;;;;8.02;4.53;;;18.90;87.90;;;;;;10610257;25;20062;-91
2022/09/03 11:54:06;;;;;;;5.45;4.00;;;20.10;89.60;;;;;;9639855;30;20042;-91
2022/09/03 11:59:12;;;;;;;4.83;3.27;;;20.60;84.40;;;;;;9646195;30;20031;-90
2022/09/03 12:04:16;;;;;;;7.00;3.90;;;20.90;85.50;;;;;;9632221;30;20867;-90
2022/09/03 12:15:56;;;;;;;6.47;3.80;;;22.00;84.20;;;;;;9638815;30;20043;-89
2022/09/03 12:27:18;;;;;;;;;;;;;;;;;;;;;
2022/09/03 12:32:19;;;;;;;;;;;22.10;80.10;;;;;;9636450;30;20049;-89
2022/09/03 12:37:50;;;;;;;7.68;4.25;;;22.20;80.90;;;;;;9641377;30;20090;-88
2022/09/03 12:42:52;;;;;;;8.82;3.85;;;22.10;79.90;;;;;;9622473;30;20680;-88
2022/09/03 12:49:02;;;;;;;8.60;4.57;;;22.00;78.50;;;;;;9638642;30;20054;-89
2022/09/03 12:54:08;;;;;;;4.93;3.50;;;21.80;79.70;;;;;;9628102;30;20720;-88
2022/09/03 12:59:14;;;;;;;4.50;3.42;;;21.40;79.50;;;;;;9630412;30;20190;-90
2022/09/03 13:04:25;;;;;;;5.65;4.20;;;20.90;79.50;;;;;;9624843;30;20050;-88
2022/09/03 13:09:34;;;;;;;6.22;4.20;;;20.40;81.70;;;;;;9653149;30;20038;-89
2022/09/03 13:14:51;;;;;;;3.97;3.47;;;20.10;82.20;;;;;;9624780;30;20129;-88
2022/09/03 13:20:33;;;;;;;4.63;3.78;;;19.90;82.70;;;;;;9627368;30;20085;-89
2022/09/03 13:26:04;;;;;;;4.32;3.70;;;19.50;83.20;;;;;;9629705;30;20122;-89
2022/09/03 13:31:41;;;;;;;4.65;3.85;;;19.20;83.90;;;;;;9629269;30;20527;-90
2022/09/03 13:36:55;;;;;;;7.05;4.50;;;19.40;84.10;;;;;;9621397;30;20035;-89
2022/09/03 13:42:08;;;;;;;7.68;4.88;;;19.70;85.50;;;;;;9623684;30;20105;-87
2022/09/03 13:47:24;;;;;;;6.18;3.90;;;19.70;84.50;;;;;;9640135;30;20518;-89
2022/09/03 13:58:47;;;;;;;5.88;3.25;;;20.30;84.50;;;;;;9634201;30;20088;-90
2022/09/03 14:16:28;;;;;;;4.47;3.17;;;20.10;82.70;;;;;;9637967;30;20054;-89
2022/09/03 14:21:38;;;;;;;3.85;2.92;;;19.80;82.90;;;;;;9640068;30;20054;-88
2022/09/03 14:26:59;;;;;;;3.53;2.83;;;19.50;83.80;;;;;;9634009;30;20046;-89
2022/09/03 14:32:24;;;;;;;7.72;3.50;;;19.40;84.90;;;;;;9626732;30;20038;-88
2022/09/03 14:37:56;;;;;;;5.53;3.95;;;19.30;86.40;;;;;;9623528;30;20149;-87
2022/09/03 14:43:28;;;;;;;7.47;3.40;;;19.30;86.20;;;;;;9626651;30;20054;-90
2022/09/03 14:48:59;;;;;;;6.00;4.38;;;19.10;85.00;;;;;;9623013;30;20059;-89
2022/09/03 15:23:17;;;;;;;9.25;4.90;;;19.00;88.20;;;;;;9614476;30;20047;-91
2022/09/03 15:28:51;;;;;;;5.90;4.40;;;19.00;88.30;;;;;;9589467;30;20038;-86
2022/09/03 15:34:20;;;;;;;5.32;4.03;;;18.90;88.30;;;;;;9614184;30;20046;-87
2022/09/03 15:39:37;;;;;;;7.68;5.43;;;18.90;87.30;;;;;;9613162;30;20054;-88
2022/09/03 15:44:48;;;;;;;6.60;4.47;;;18.80;88.20;;;;;;9611036;30;20042;-87
2022/09/03 15:50:00;;;;;;;9.48;4.97;;;18.80;88.80;;;;;;9610839;30;20146;-85
2022/09/03 15:55:11;;;;;;;8.57;5.10;;;18.70;89.80;;;;;;9611076;30;20039;-87
2022/09/03 16:00:20;;;;;;;7.55;4.75;;;18.60;89.50;;;;;;9588344;30;20058;-89
2022/09/03 16:12:00;;;;;;;8.50;5.13;;;18.40;88.60;;;;;;9612294;30;20125;-90
2022/09/03 16:17:38;;;;;;;5.93;4.35;;;18.30;89.50;;;;;;9597696;30;20093;-89
2022/09/03 16:35:41;;;;;;;5.80;4.57;;;18.20;90.10;;;;;;9617167;30;20047;-93
2022/09/03 16:47:40;;;;;;;7.15;4.30;;;17.90;90.10;;;;;;9905257;25;20066;-90
2022/09/03 16:53:27;;;;;;;7.35;4.80;;;17.60;90.10;;;;;;9538546;31;20126;-90
2022/09/03 17:17:14;;;;;;;9.93;6.60;;;16.90;91.40;;;;;;9500069;31;20123;-88
2022/09/03 17:53:11;;;;;;;10.55;6.65;;;15.50;95.50;;;;;;9644243;30;20071;-90
2022/09/03 17:58:11;;;;;;;9.48;6.65;;;15.30;96.20;;;;;;9630036;30;20057;-90
2022/09/03 18:03:40;;;;;;;9.13;6.40;;;15.20;97.50;;;;;;9653235;30;20045;-89
2022/09/03 18:14:51;;;;;;;12.30;7.00;;;14.90;99.90;;;;;;9653022;30;20054;-91
2022/09/03 20:13:16;;;;;;;9.27;5.80;;;14.20;99.90;;;;;;9665193;30;20042;-86
2022/09/03 20:18:42;;;;;;;11.02;6.55;;;14.20;99.90;;;;;;9677100;30;20141;-89
2022/09/03 20:24:09;;;;;;;10.70;6.65;;;14.20;99.90;;;;;;9683670;30;20112;-87
2022/09/03 20:29:40;;;;;;;10.52;6.85;;;14.20;99.90;;;;;;9678598;30;20043;-91
2022/09/03 20:34:55;;;;;;;10.00;6.47;;;14.10;99.90;;;;;;9681970;30;20109;-87
2022/09/03 20:40:15;;;;;;;9.15;5.50;;;14.10;99.90;;;;;;9679317;30;20046;-89
2022/09/03 20:45:29;;;;;;;13.07;6.43;;;14.00;99.90;;;;;;9680601;30;20539;-87
2022/09/03 20:50:42;;;;;;;16.17;8.10;;;14.00;99.90;;;;;;9679122;30;20045;-87
2022/09/03 20:55:53;;;;;;;15.98;9.30;;;14.00;99.90;;;;;;9680533;30;20633;-88
2022/09/03 21:01:12;;;;;;;17.65;8.80;;;14.00;99.90;;;;;;9676622;30;20045;-88
2022/09/03 21:06:22;;;;;;;8.95;5.95;;;14.00;99.90;;;;;;9680801;30;20129;-87
2022/09/03 21:11:36;;;;;;;8.07;5.50;;;14.00;99.90;;;;;;9678185;30;20081;-89
2022/09/03 21:16:58;;;;;;;10.82;6.72;;;14.00;99.90;;;;;;9676083;30;20172;-87
2022/09/03 21:22:30;;;;;;;12.25;6.10;;;14.00;99.90;;;;;;9680900;30;20704;-87
2022/09/03 21:27:56;;;;;;;10.40;6.05;;;13.90;99.90;;;;;;9677658;30;20038;-89
2022/09/03 21:33:35;;;;;;;7.82;5.90;;;13.90;99.90;;;;;;9676408;30;20101;-88
2022/09/03 21:38:37;;;;;;;11.38;6.35;;;13.90;99.90;;;;;;9588928;30;20064;-88
2022/09/03 21:43:55;;;;;;;7.03;5.95;;;13.80;99.90;;;;;;9672786;30;20034;-87
2022/09/03 21:49:01;;;;;;;10.10;6.18;;;13.80;99.90;;;;;;9676756;30;20112;-87
2022/09/03 21:54:24;;;;;;;8.77;6.28;;;13.70;99.90;;;;;;9671237;30;20052;-88
2022/09/03 21:59:35;;;;;;;8.65;5.70;;;13.70;99.90;;;;;;9677451;30;20081;-88
2022/09/03 22:04:36;;;;;;;9.63;6.53;;;13.70;99.90;;;;;;9675943;30;20037;-90
2022/09/03 22:09:51;;;;;;;8.80;6.35;;;13.80;99.90;;;;;;9665779;30;20041;-88
2022/09/03 22:14:54;;;;;;;6.72;4.47;;;13.80;99.90;;;;;;9676306;30;20511;-88
2022/09/03 22:19:55;;;;;;;11.00;6.22;;;13.80;99.90;;;;;;9661060;30;20088;-88
2022/09/03 22:25:04;;;;;;;10.07;6.45;;;13.90;99.90;;;;;;9679793;30;20034;-87
2022/09/03 22:30:13;;;;;;;7.72;5.60;;;13.80;99.90;;;;;;9683565;30;20487;-89
2022/09/03 22:35:28;;;;;;;8.68;5.50;;;13.70;99.90;;;;;;9684809;30;20042;-88
2022/09/03 22:41:14;;;;;;;7.50;5.15;;;13.70;99.90;;;;;;9685344;30;20129;-87
2022/09/03 22:46:18;;;;;;;9.27;5.55;;;13.80;99.90;;;;;;9669594;30;20056;-88
2022/09/03 22:51:19;;;;;;;7.20;5.50;;;13.80;99.90;;;;;;9698427;30;20041;-87
2022/09/03 22:56:23;;;;;;;9.23;5.57;;;13.80;99.90;;;;;;9693975;30;20130;-89
2022/09/03 23:01:33;;;;;;;7.43;4.90;;;13.80;99.90;;;;;;9671050;30;20451;-88
2022/09/03 23:06:49;;;;;;;8.02;5.35;;;13.70;99.90;;;;;;9668418;30;20404;-87
2022/09/03 23:11:55;;;;;;;9.30;5.25;;;13.70;99.90;;;;;;9689864;30;20402;-89
2022/09/03 23:17:04;;;;;;;8.52;5.68;;;13.70;99.90;;;;;;9690799;30;20054;-87
2022/09/03 23:22:19;;;;;;;10.93;6.05;;;13.60;99.90;;;;;;9697886;30;20030;-88
2022/09/03 23:27:33;;;;;;;8.05;5.88;;;13.50;99.90;;;;;;9695516;30;20061;-87
2022/09/03 23:32:34;;;;;;;8.35;5.75;;;13.40;99.90;;;;;;9706678;30;20085;-87
2022/09/03 23:37:46;;;;;;;8.40;5.88;;;13.30;99.90;;;;;;9704049;30;20172;-86
2022/09/03 23:43:05;;;;;;;7.88;6.10;;;13.20;99.90;;;;;;9693384;30;20048;-87
2022/09/03 23:48:37;;;;;;;7.82;5.65;;;13.20;99.90;;;;;;9686051;30;20034;-90
2022/09/03 23:53:43;;;;;;;7.18;5.07;;;13.10;99.90;;;;;;9705410;30;20507;-88
2022/09/03 23:59:13;;;;;;;10.40;6.47;;;13.10;99.90;;;;;;9671879;30;20077;-89
